Time;durP1;ratioP1;P1;durP2;ratioP2;P2;SDS_P1;SDS_P2;PMS_P1;PMS_P2;Temp;Humidity;BMP_temperature;BMP_pressure;BME280_temperature;BME280_humidity;BME280_pressure;Samples;Min_cycle;Max_cycle;Signal;HPM_P1;HPM_P2
2022/06/01 00:02:28;;;;;;;3.63;2.53;;;;;;;;;;10489358;28;20056;-42
2022/06/01 00:07:28;;;;;;;5.93;2.63;;;;;;;;;;10493945;28;20111;-43
2022/06/01 00:12:31;;;;;;;5.97;2.88;;;;;;;;;;10482488;28;20071;-42
2022/06/01 00:17:31;;;;;;;3.30;2.40;;;;;;;;;;10483869;28;20287;-43
2022/06/01 00:22:32;;;;;;;4.97;2.58;;;;;;;;;;10485393;28;20579;-42
2022/06/01 00:27:32;;;;;;;8.65;2.58;;;;;;;;;;10493827;28;20036;-42
2022/06/01 00:32:34;;;;;;;3.92;2.50;;;;;;;;;;10486118;28;20079;-42
2022/06/01 00:37:34;;;;;;;5.43;2.47;;;;;;;;;;10472154;28;20033;-43
2022/06/01 00:42:38;;;;;;;6.82;2.22;;;;;;;;;;10490581;28;20025;-42
2022/06/01 00:47:39;;;;;;;5.72;2.13;;;;;;;;;;10472026;28;20048;-42
2022/06/01 00:52:49;;;;;;;4.68;2.88;;;;;;;;;;10485750;28;20439;-42
2022/06/01 00:57:56;;;;;;;4.57;2.25;;;;;;;;;;10481506;28;20028;-43
2022/06/01 01:03:00;;;;;;;3.45;2.33;;;;;;;;;;10468448;28;20028;-43
2022/06/01 01:08:04;;;;;;;4.93;2.10;;;;;;;;;;10453229;28;20499;-42
2022/06/01 01:13:10;;;;;;;3.00;2.30;;;;;;;;;;10486182;28;20035;-43
2022/06/01 01:18:17;;;;;;;3.28;2.03;;;;;;;;;;10479092;28;20029;-41
2022/06/01 01:23:53;;;;;;;3.38;2.03;;;;;;;;;;10462890;28;20042;-41
2022/06/01 01:28:54;;;;;;;2.80;2.00;;;;;;;;;;10484910;28;20113;-42
2022/06/01 01:33:55;;;;;;;3.78;2.38;;;;;;;;;;10470038;28;20112;-43
2022/06/01 01:39:10;;;;;;;4.07;2.22;;;;;;;;;;10478001;28;20021;-44
2022/06/01 01:44:21;;;;;;;3.10;2.40;;;;;;;;;;10488631;28;20079;-42
2022/06/01 01:49:25;;;;;;;2.95;2.13;;;;;;;;;;10459955;28;20032;-42
2022/06/01 01:54:48;;;;;;;3.92;2.55;;;;;;;;;;10483225;28;20112;-42
2022/06/01 02:00:06;;;;;;;4.70;1.90;;;;;;;;;;10484381;28;20299;-42
2022/06/01 02:16:06;;;;;;;3.95;2.00;;;;;;;;;;10465443;28;20032;-42
2022/06/01 02:21:21;;;;;;;4.70;2.20;;;;;;;;;;10476794;28;20025;-42
2022/06/01 02:26:21;;;;;;;2.80;2.00;;;;;;;;;;10460257;28;20029;-42
2022/06/01 02:31:24;;;;;;;2.80;2.10;;;;;;;;;;10458864;28;20505;-41
2022/06/01 02:36:26;;;;;;;4.95;2.10;;;;;;;;;;10460882;28;20673;-42
2022/06/01 02:46:45;;;;;;;2.22;1.95;;;;;;;;;;10473361;28;20439;-41
2022/06/01 02:51:46;;;;;;;3.70;1.90;;;;;;;;;;10486258;28;20036;-41
2022/06/01 02:56:48;;;;;;;2.13;1.80;;;;;;;;;;10476463;28;20021;-41
2022/06/01 03:01:48;;;;;;;4.70;2.20;;;;;;;;;;10484633;28;20037;-42
2022/06/01 03:06:49;;;;;;;3.53;2.00;;;;;;;;;;10475891;28;20541;-42
2022/06/01 03:11:50;;;;;;;2.60;1.80;;;;;;;;;;10495489;28;20221;-42
2022/06/01 03:16:50;;;;;;;6.35;2.35;;;;;;;;;;10485269;28;20415;-42
2022/06/01 03:21:51;;;;;;;2.78;2.00;;;;;;;;;;10474240;28;20027;-41
2022/06/01 03:26:52;;;;;;;3.83;2.10;;;;;;;;;;10489508;28;20029;-42
2022/06/01 03:31:53;;;;;;;2.58;1.90;;;;;;;;;;10489137;28;20024;-42
2022/06/01 03:36:54;;;;;;;2.65;2.00;;;;;;;;;;10485876;28;20020;-42
2022/06/01 03:41:54;;;;;;;4.57;1.88;;;;;;;;;;10483033;28;20052;-42
2022/06/01 03:47:04;;;;;;;5.43;1.85;;;;;;;;;;10492565;28;20126;-42
2022/06/01 03:52:06;;;;;;;2.75;1.90;;;;;;;;;;10485858;28;20024;-42
2022/06/01 03:57:07;;;;;;;2.63;1.80;;;;;;;;;;10482495;28;20032;-42
2022/06/01 04:02:07;;;;;;;2.72;1.80;;;;;;;;;;10489634;28;20045;-44
2022/06/01 04:07:08;;;;;;;2.75;2.22;;;;;;;;;;10492107;28;20101;-42
2022/06/01 04:12:09;;;;;;;3.17;1.92;;;;;;;;;;10483050;28;20017;-42
2022/06/01 04:17:10;;;;;;;2.53;1.80;;;;;;;;;;10491086;28;20032;-43
2022/06/01 04:22:12;;;;;;;4.95;1.80;;;;;;;;;;10487247;28;20024;-42
2022/06/01 04:27:13;;;;;;;3.83;2.08;;;;;;;;;;10465914;28;20032;-42
2022/06/01 04:32:23;;;;;;;3.00;1.70;;;;;;;;;;10485884;28;20029;-42
2022/06/01 04:37:23;;;;;;;2.72;2.15;;;;;;;;;;10475577;28;20097;-42
2022/06/01 04:42:24;;;;;;;6.38;1.77;;;;;;;;;;10483632;28;20036;-42
2022/06/01 04:47:25;;;;;;;2.78;1.90;;;;;;;;;;10474947;28;20036;-41
2022/06/01 04:52:38;;;;;;;2.50;1.85;;;;;;;;;;10480859;28;20035;-41
2022/06/01 04:57:39;;;;;;;2.83;1.65;;;;;;;;;;10484741;28;20024;-42
2022/06/01 05:02:40;;;;;;;2.08;1.83;;;;;;;;;;10479063;28;20077;-42
2022/06/01 05:07:41;;;;;;;6.45;1.80;;;;;;;;;;10481246;28;20392;-42
2022/06/01 05:12:41;;;;;;;2.45;1.90;;;;;;;;;;10490650;28;20066;-42
2022/06/01 05:17:42;;;;;;;6.85;2.22;;;;;;;;;;10487156;28;20089;-44
2022/06/01 05:22:42;;;;;;;7.75;2.60;;;;;;;;;;10483638;28;20040;-42
2022/06/01 05:27:43;;;;;;;6.82;3.17;;;;;;;;;;10483661;28;20033;-43
2022/06/01 05:32:43;;;;;;;12.77;3.40;;;;;;;;;;10483524;28;20035;-44
2022/06/01 05:37:44;;;;;;;14.25;6.80;;;;;;;;;;10491215;28;20503;-45
2022/06/01 05:42:45;;;;;;;8.85;4.80;;;;;;;;;;10488916;28;20033;-43
2022/06/01 05:47:45;;;;;;;25.35;5.85;;;;;;;;;;10464789;28;20109;-42
2022/06/01 05:52:46;;;;;;;17.45;8.60;;;;;;;;;;10483985;28;20036;-42
2022/06/01 05:57:47;;;;;;;12.55;5.75;;;;;;;;;;10486349;28;20035;-42
2022/06/01 06:02:47;;;;;;;12.05;4.45;;;;;;;;;;10486335;28;20021;-44
2022/06/01 06:07:48;;;;;;;12.77;5.47;;;;;;;;;;10480285;28;20036;-44
2022/06/01 06:12:49;;;;;;;13.05;4.72;;;;;;;;;;10487834;28;20066;-42
2022/06/01 06:17:49;;;;;;;15.60;4.72;;;;;;;;;;10489505;28;20429;-42
2022/06/01 06:22:50;;;;;;;9.93;3.97;;;;;;;;;;10488551;28;20036;-42
2022/06/01 06:27:51;;;;;;;8.38;3.97;;;;;;;;;;10489528;28;20036;-42
2022/06/01 06:32:52;;;;;;;8.50;3.92;;;;;;;;;;10485296;28;20368;-42
2022/06/01 06:37:53;;;;;;;12.25;4.60;;;;;;;;;;10486711;28;20032;-42
2022/06/01 06:42:53;;;;;;;10.38;4.35;;;;;;;;;;10471628;28;20089;-42
2022/06/01 06:47:54;;;;;;;7.13;3.40;;;;;;;;;;10480726;28;20054;-42
2022/06/01 06:52:55;;;;;;;7.07;3.60;;;;;;;;;;10490352;28;20449;-42
2022/06/01 06:57:55;;;;;;;7.93;4.25;;;;;;;;;;10477817;28;20028;-43
2022/06/01 07:02:56;;;;;;;10.43;3.75;;;;;;;;;;10462777;28;20028;-42
2022/06/01 07:07:56;;;;;;;5.55;3.20;;;;;;;;;;10484930;28;20090;-42
2022/06/01 07:12:57;;;;;;;10.88;3.45;;;;;;;;;;10478068;28;20025;-44
2022/06/01 07:17:57;;;;;;;14.52;3.67;;;;;;;;;;10489395;28;20054;-42
2022/06/01 07:22:58;;;;;;;5.68;3.30;;;;;;;;;;10479643;28;20377;-42
2022/06/01 07:27:59;;;;;;;6.57;3.10;;;;;;;;;;10489106;28;20066;-42
2022/06/01 07:32:59;;;;;;;11.20;3.35;;;;;;;;;;10484450;28;20437;-42
2022/06/01 07:43:21;;;;;;;6.30;3.40;;;;;;;;;;10488072;28;20036;-42
2022/06/01 07:48:22;;;;;;;6.07;2.92;;;;;;;;;;10486825;28;20044;-42
2022/06/01 07:53:23;;;;;;;3.25;2.88;;;;;;;;;;10491923;28;20470;-42
2022/06/01 07:58:23;;;;;;;7.32;2.90;;;;;;;;;;10480077;28;20032;-42
2022/06/01 08:03:24;;;;;;;3.03;2.40;;;;;;;;;;10491472;28;20036;-42
2022/06/01 08:08:25;;;;;;;8.80;2.80;;;;;;;;;;10490938;28;20412;-42
2022/06/01 08:13:26;;;;;;;5.82;3.10;;;;;;;;;;10484746;28;20256;-42
2022/06/01 08:18:26;;;;;;;7.85;3.20;;;;;;;;;;10495072;28;20399;-44
2022/06/01 08:23:30;;;;;;;4.75;2.78;;;;;;;;;;10494938;28;20352;-42
2022/06/01 08:28:30;;;;;;;6.30;3.13;;;;;;;;;;10495245;28;20179;-42
2022/06/01 08:33:31;;;;;;;4.40;2.90;;;;;;;;;;10484832;28;20480;-42
2022/06/01 08:38:31;;;;;;;8.35;2.80;;;;;;;;;;10489918;28;20028;-42
2022/06/01 08:43:50;;;;;;;5.05;2.80;;;;;;;;;;10494189;28;20028;-42
2022/06/01 08:48:59;;;;;;;3.55;2.63;;;;;;;;;;10476917;28;20051;-44
2022/06/01 08:54:01;;;;;;;3.63;2.80;;;;;;;;;;10476174;28;20411;-42
2022/06/01 08:59:40;;;;;;;3.90;2.67;;;;;;;;;;10467031;28;20368;-43
2022/06/01 09:05:18;;;;;;;4.47;2.53;;;;;;;;;;10482143;28;20028;-42
2022/06/01 09:10:43;;;;;;;6.00;3.15;;;;;;;;;;10488899;28;20032;-42
2022/06/01 09:15:50;;;;;;;3.53;2.55;;;;;;;;;;10490640;28;20167;-42
2022/06/01 09:26:28;;;;;;;4.30;2.70;;;;;;;;;;10491346;28;20025;-42
2022/06/01 09:31:37;;;;;;;4.97;2.60;;;;;;;;;;10479516;28;20473;-43
2022/06/01 09:37:04;;;;;;;7.80;2.95;;;;;;;;;;10492191;28;20492;-42
2022/06/01 09:42:25;;;;;;;6.97;3.47;;;;;;;;;;10485534;28;20104;-42
2022/06/01 09:47:36;;;;;;;6.75;3.30;;;;;;;;;;10489187;28;20095;-42
2022/06/01 09:52:41;;;;;;;6.97;3.33;;;;;;;;;;10487191;28;20029;-44
2022/06/01 09:57:43;;;;;;;4.60;2.92;;;;;;;;;;10489352;28;20094;-42
2022/06/01 10:08:41;;;;;;;6.10;3.13;;;;;;;;;;10483214;28;20391;-42
2022/06/01 10:13:53;;;;;;;6.93;3.05;;;;;;;;;;10476086;28;20090;-44
2022/06/01 10:18:58;;;;;;;4.10;2.70;;;;;;;;;;10488251;28;20043;-43
2022/06/01 10:24:08;;;;;;;6.68;3.10;;;;;;;;;;10470199;28;20112;-44
2022/06/01 10:29:15;;;;;;;8.80;3.25;;;;;;;;;;10470663;28;20400;-42
2022/06/01 10:34:36;;;;;;;8.37;3.20;;;;;;;;;;10469854;28;20112;-42
2022/06/01 10:40:15;;;;;;;7.28;3.05;;;;;;;;;;10472356;28;20052;-42
2022/06/01 10:45:16;;;;;;;5.70;3.05;;;;;;;;;;10481271;28;20076;-42
2022/06/01 10:50:20;;;;;;;4.10;2.92;;;;;;;;;;10487588;28;20119;-42
2022/06/01 10:55:30;;;;;;;4.85;3.03;;;;;;;;;;10469241;28;20040;-42
2022/06/01 11:00:48;;;;;;;4.00;2.80;;;;;;;;;;10483527;28;20582;-43
2022/06/01 11:06:11;;;;;;;4.03;3.03;;;;;;;;;;10471623;28;20671;-42
2022/06/01 11:11:50;;;;;;;9.82;3.08;;;;;;;;;;10481326;28;20032;-43
2022/06/01 11:17:09;;;;;;;4.50;3.03;;;;;;;;;;10471425;28;20040;-42
2022/06/01 11:22:56;;;;;;;5.03;3.33;;;;;;;;;;10462864;28;20063;-42
2022/06/01 11:28:43;;;;;;;4.32;3.03;;;;;;;;;;10486550;28;20025;-44
2022/06/01 11:33:58;;;;;;;7.47;3.53;;;;;;;;;;10473457;28;20029;-42
2022/06/01 11:39:15;;;;;;;4.63;3.15;;;;;;;;;;10495738;28;20039;-42
2022/06/01 11:44:24;;;;;;;6.80;3.50;;;;;;;;;;10482912;28;20099;-43
2022/06/01 11:49:56;;;;;;;7.45;3.50;;;;;;;;;;10493790;28;20108;-44
2022/06/01 11:55:15;;;;;;;11.65;3.58;;;;;;;;;;10453736;28;20028;-44
2022/06/01 12:00:47;;;;;;;6.88;3.13;;;;;;;;;;10495003;28;20021;-43
2022/06/01 12:06:41;;;;;;;6.70;3.50;;;;;;;;;;10482914;28;20633;-42
2022/06/01 12:11:46;;;;;;;6.53;3.10;;;;;;;;;;10493405;28;20032;-41
2022/06/01 12:17:06;;;;;;;4.70;3.40;;;;;;;;;;10494090;28;20496;-44
2022/06/01 12:28:30;;;;;;;7.40;3.40;;;;;;;;;;10484943;28;20127;-43
2022/06/01 12:33:03;;;;;;;4.47;3.50;;;;;;;;;;10466073;28;20028;-42
2022/06/01 12:38:09;;;;;;;10.35;3.13;;;;;;;;;;10492577;28;20033;-44
2022/06/01 12:43:18;;;;;;;10.00;4.07;;;;;;;;;;10469264;28;20114;-43
2022/06/01 12:48:23;;;;;;;10.00;4.10;;;;;;;;;;10468104;28;20115;-42
2022/06/01 12:53:42;;;;;;;11.25;3.78;;;;;;;;;;10492055;28;20036;-42
2022/06/01 12:58:45;;;;;;;6.20;3.42;;;;;;;;;;10482262;28;20048;-43
2022/06/01 13:03:50;;;;;;;6.07;3.45;;;;;;;;;;10492288;28;20472;-43
2022/06/01 13:09:07;;;;;;;8.82;3.67;;;;;;;;;;10491875;28;20078;-42
2022/06/01 13:14:09;;;;;;;5.57;3.80;;;;;;;;;;10474679;28;20024;-44
2022/06/01 13:19:25;;;;;;;6.22;3.80;;;;;;;;;;10473141;28;20544;-44
2022/06/01 13:24:27;;;;;;;8.05;3.88;;;;;;;;;;10473172;28;20028;-42
2022/06/01 13:29:47;;;;;;;7.75;3.92;;;;;;;;;;10453047;28;20056;-43
2022/06/01 13:34:52;;;;;;;11.23;3.50;;;;;;;;;;10457210;28;20500;-44
2022/06/01 13:40:02;;;;;;;5.43;3.83;;;;;;;;;;10464882;28;20488;-44
2022/06/01 13:45:31;;;;;;;10.18;4.00;;;;;;;;;;10484956;28;20111;-42
2022/06/01 13:50:53;;;;;;;7.22;3.85;;;;;;;;;;10478690;28;20037;-43
2022/06/01 13:56:33;;;;;;;5.95;3.47;;;;;;;;;;10464751;28;20062;-42
2022/06/01 14:01:46;;;;;;;7.70;3.88;;;;;;;;;;10447855;28;20032;-44
2022/06/01 14:07:02;;;;;;;7.13;3.78;;;;;;;;;;10490699;28;20040;-42
2022/06/01 14:12:03;;;;;;;7.68;3.33;;;;;;;;;;10463221;28;20076;-41
2022/06/01 14:17:09;;;;;;;8.80;3.80;;;;;;;;;;10478679;28;20028;-44
2022/06/01 14:22:12;;;;;;;6.43;3.20;;;;;;;;;;10490735;28;20032;-41
2022/06/01 14:32:32;;;;;;;12.15;4.03;;;;;;;;;;10486123;28;20028;-41
2022/06/01 14:37:33;;;;;;;10.40;4.25;;;;;;;;;;10489176;28;20021;-42
2022/06/01 14:42:34;;;;;;;9.43;4.30;;;;;;;;;;10479278;28;20021;-45
2022/06/01 14:47:35;;;;;;;8.52;4.18;;;;;;;;;;10483612;28;20045;-45
2022/06/01 14:52:37;;;;;;;8.48;4.13;;;;;;;;;;10466449;28;20029;-43
2022/06/01 14:57:38;;;;;;;13.52;4.55;;;;;;;;;;10469514;28;20039;-42
2022/06/01 15:02:43;;;;;;;7.50;4.47;;;;;;;;;;10477567;28;20036;-46
2022/06/01 15:07:44;;;;;;;6.50;4.57;;;;;;;;;;10469892;28;20035;-44
2022/06/01 15:12:45;;;;;;;18.52;4.18;;;;;;;;;;10480154;28;20025;-43
2022/06/01 15:17:46;;;;;;;7.40;5.03;;;;;;;;;;10496308;28;20120;-43
2022/06/01 15:22:46;;;;;;;6.68;4.00;;;;;;;;;;10491711;28;20035;-43
2022/06/01 15:27:47;;;;;;;9.35;4.43;;;;;;;;;;10493928;28;20102;-44
2022/06/01 15:43:28;;;;;;;8.63;5.68;;;;;;;;;;10493697;28;20016;-44
2022/06/01 15:48:29;;;;;;;7.55;4.95;;;;;;;;;;10494108;28;20040;-43
2022/06/01 15:53:29;;;;;;;12.10;5.05;;;;;;;;;;10488667;28;20044;-43
2022/06/01 15:58:30;;;;;;;12.55;5.47;;;;;;;;;;10494730;28;20103;-44
2022/06/01 16:03:31;;;;;;;14.13;5.72;;;;;;;;;;10488661;28;20066;-44
2022/06/01 16:08:32;;;;;;;9.80;5.53;;;;;;;;;;10476808;28;20047;-41
2022/06/01 16:13:33;;;;;;;9.80;5.25;;;;;;;;;;10494835;28;20021;-41
2022/06/01 16:18:33;;;;;;;8.30;5.35;;;;;;;;;;10494715;28;20059;-45
2022/06/01 16:23:35;;;;;;;8.38;5.40;;;;;;;;;;10494287;28;20024;-41
2022/06/01 16:28:35;;;;;;;8.25;5.10;;;;;;;;;;10493907;28;20036;-41
2022/06/01 16:33:37;;;;;;;9.02;5.35;;;;;;;;;;10489546;28;20667;-42
2022/06/01 16:38:39;;;;;;;10.38;5.68;;;;;;;;;;10488642;28;20036;-42
2022/06/01 16:43:41;;;;;;;9.75;5.25;;;;;;;;;;10485604;28;20424;-40
2022/06/01 16:48:43;;;;;;;12.25;5.20;;;;;;;;;;10491017;28;20037;-41
2022/06/01 16:53:44;;;;;;;8.20;5.88;;;;;;;;;;10489995;28;20025;-42
2022/06/01 16:58:45;;;;;;;7.07;4.45;;;;;;;;;;10489079;28;20032;-42
2022/06/01 17:03:45;;;;;;;8.45;5.60;;;;;;;;;;10478387;28;20035;-42
2022/06/01 17:08:49;;;;;;;7.57;5.32;;;;;;;;;;10489262;28;20039;-43
2022/06/01 17:13:50;;;;;;;9.13;5.13;;;;;;;;;;10472397;28;20464;-44
2022/06/01 17:18:51;;;;;;;11.20;5.22;;;;;;;;;;10492210;28;20128;-45
2022/06/01 17:23:52;;;;;;;8.05;5.43;;;;;;;;;;10472625;28;20040;-45
2022/06/01 17:28:52;;;;;;;6.45;4.80;;;;;;;;;;10481644;28;20036;-43
2022/06/01 17:33:55;;;;;;;9.73;5.25;;;;;;;;;;10482705;28;20035;-44
2022/06/01 17:38:56;;;;;;;10.13;5.07;;;;;;;;;;10472233;28;20070;-43
2022/06/01 17:43:56;;;;;;;6.55;4.60;;;;;;;;;;10478682;28;20043;-42
2022/06/01 17:48:57;;;;;;;6.82;5.07;;;;;;;;;;10490566;28;20029;-42
2022/06/01 17:53:57;;;;;;;13.38;5.82;;;;;;;;;;10489485;28;20017;-45
2022/06/01 17:59:02;;;;;;;10.40;5.13;;;;;;;;;;10487390;28;20036;-45
2022/06/01 18:04:03;;;;;;;9.25;4.72;;;;;;;;;;10457908;28;20048;-43
2022/06/01 18:09:06;;;;;;;10.55;5.70;;;;;;;;;;10477226;28;20037;-43
2022/06/01 18:14:07;;;;;;;11.70;5.30;;;;;;;;;;10487240;28;20016;-44
2022/06/01 18:19:13;;;;;;;12.75;4.70;;;;;;;;;;10482696;28;20032;-41
2022/06/01 18:24:17;;;;;;;10.70;5.47;;;;;;;;;;10485623;28;20042;-41
2022/06/01 18:29:20;;;;;;;5.55;4.40;;;;;;;;;;10489096;28;20586;-43
2022/06/01 18:34:21;;;;;;;9.13;5.00;;;;;;;;;;10487489;28;20028;-42
2022/06/01 18:39:21;;;;;;;15.60;4.85;;;;;;;;;;10484357;28;20371;-43
2022/06/01 18:44:22;;;;;;;14.70;5.30;;;;;;;;;;10484894;28;20045;-41
2022/06/01 18:49:24;;;;;;;10.88;5.00;;;;;;;;;;10485779;28;20036;-43
2022/06/01 18:54:26;;;;;;;11.05;4.93;;;;;;;;;;10487530;28;20048;-40
2022/06/01 19:04:46;;;;;;;12.23;4.57;;;;;;;;;;10488224;28;20399;-40
2022/06/01 19:09:48;;;;;;;12.13;4.97;;;;;;;;;;10481020;28;20029;-40
2022/06/01 19:14:49;;;;;;;11.57;5.15;;;;;;;;;;10481248;28;20032;-42
2022/06/01 19:19:55;;;;;;;12.10;4.82;;;;;;;;;;10474504;28;20393;-42
2022/06/01 19:24:58;;;;;;;14.82;4.43;;;;;;;;;;10469563;28;20024;-40
2022/06/01 19:29:59;;;;;;;13.05;4.97;;;;;;;;;;10483294;28;20029;-41
2022/06/01 19:34:59;;;;;;;15.65;4.95;;;;;;;;;;10483465;28;20032;-43
2022/06/01 19:45:21;;;;;;;13.65;4.68;;;;;;;;;;10468394;28;20037;-40
2022/06/01 19:50:22;;;;;;;17.10;4.95;;;;;;;;;;10474616;28;20044;-40
2022/06/01 19:55:27;;;;;;;9.18;4.10;;;;;;;;;;10493359;28;20134;-40
2022/06/01 20:00:28;;;;;;;14.30;5.22;;;;;;;;;;10491916;28;20028;-41
2022/06/01 20:05:29;;;;;;;9.48;4.68;;;;;;;;;;10494406;28;20035;-42
2022/06/01 20:10:30;;;;;;;9.82;4.70;;;;;;;;;;10495113;28;20035;-43
2022/06/01 20:15:30;;;;;;;16.73;4.68;;;;;;;;;;10491535;28;20032;-41
2022/06/01 20:20:31;;;;;;;10.13;4.50;;;;;;;;;;10489461;28;20444;-44
2022/06/01 20:25:35;;;;;;;8.02;4.50;;;;;;;;;;10479670;28;20068;-44
2022/06/01 20:30:37;;;;;;;11.98;4.47;;;;;;;;;;10480869;28;20476;-42
2022/06/01 20:35:38;;;;;;;11.52;4.90;;;;;;;;;;10487785;28;20051;-43
2022/06/01 20:40:38;;;;;;;8.20;4.55;;;;;;;;;;10494114;28;20033;-42
2022/06/01 20:45:40;;;;;;;9.55;4.20;;;;;;;;;;10490571;28;20036;-43
2022/06/01 20:50:40;;;;;;;8.88;4.32;;;;;;;;;;10491298;28;20052;-47
2022/06/01 20:55:41;;;;;;;10.35;4.05;;;;;;;;;;10504916;28;20116;-43
2022/06/01 21:00:42;;;;;;;9.18;4.53;;;;;;;;;;10490638;28;20086;-39
2022/06/01 21:05:43;;;;;;;13.68;4.63;;;;;;;;;;10493069;28;20039;-42
2022/06/01 21:10:44;;;;;;;8.75;4.57;;;;;;;;;;10490635;28;20024;-40
2022/06/01 21:15:45;;;;;;;7.28;3.80;;;;;;;;;;10472632;28;20040;-40
2022/06/01 21:20:46;;;;;;;7.43;4.18;;;;;;;;;;10478047;28;20036;-42
2022/06/01 21:25:46;;;;;;;9.45;4.20;;;;;;;;;;10478152;28;20545;-40
2022/06/01 21:30:48;;;;;;;11.50;4.85;;;;;;;;;;10472521;28;20396;-43
2022/06/01 21:35:49;;;;;;;10.40;4.93;;;;;;;;;;10466588;28;20380;-45
2022/06/01 21:40:50;;;;;;;16.55;5.95;;;;;;;;;;10479553;28;20036;-43
2022/06/01 21:45:54;;;;;;;12.30;5.90;;;;;;;;;;10475369;28;20484;-40
2022/06/01 21:50:55;;;;;;;15.13;6.53;;;;;;;;;;10481211;28;20396;-43
2022/06/01 21:55:55;;;;;;;19.33;7.75;;;;;;;;;;10473118;28;20024;-45
2022/06/01 22:00:56;;;;;;;15.82;7.18;;;;;;;;;;10472857;28;20036;-39
2022/06/01 22:05:57;;;;;;;18.17;7.03;;;;;;;;;;10473337;28;20102;-42
2022/06/01 22:16:18;;;;;;;17.75;9.07;;;;;;;;;;10479662;28;20384;-40
2022/06/01 22:21:20;;;;;;;16.83;8.50;;;;;;;;;;10485890;28;20025;-43
2022/06/01 22:26:20;;;;;;;19.60;9.30;;;;;;;;;;10487348;28;20032;-43
2022/06/01 22:31:21;;;;;;;19.58;9.52;;;;;;;;;;10478253;28;20051;-41
2022/06/01 22:41:53;;;;;;;28.05;9.50;;;;;;;;;;10460946;28;20064;-41
2022/06/01 22:47:00;;;;;;;22.70;10.07;;;;;;;;;;10478895;28;20506;-44
2022/06/01 22:52:02;;;;;;;23.58;9.30;;;;;;;;;;10462004;28;20476;-42
2022/06/01 22:57:04;;;;;;;16.95;7.90;;;;;;;;;;10483392;28;20040;-39
2022/06/01 23:02:05;;;;;;;21.90;7.18;;;;;;;;;;10481754;28;20044;-40
2022/06/01 23:07:06;;;;;;;17.17;6.97;;;;;;;;;;10480983;28;20036;-39
2022/06/01 23:12:07;;;;;;;22.50;7.22;;;;;;;;;;10492196;28;20484;-39
2022/06/01 23:17:08;;;;;;;14.85;6.38;;;;;;;;;;10494174;28;20020;-40
2022/06/01 23:22:13;;;;;;;21.52;6.50;;;;;;;;;;10482609;28;20438;-39
2022/06/01 23:27:14;;;;;;;17.23;6.47;;;;;;;;;;10474396;28;20041;-40
2022/06/01 23:33:00;;;;;;;10.73;5.45;;;;;;;;;;10488949;28;20028;-39
2022/06/01 23:38:46;;;;;;;11.48;5.55;;;;;;;;;;10473684;28;20032;-41
2022/06/01 23:44:35;;;;;;;12.98;5.80;;;;;;;;;;10474513;28;21645;-41
2022/06/01 23:50:00;;;;;;;11.73;5.13;;;;;;;;;;10480729;28;20036;-40
2022/06/01 23:55:36;;;;;;;9.63;4.53;;;;;;;;;;10469647;28;20025;-41
